sensor_id;sensor_type;location;lat;lon;timestamp;P1;durP1;ratioP1;P2;durP2;ratioP2
33824;SDS011;20127;48.962;8.342;2023-06-14T00:02:21;5.00;;;4.50;;
33824;SDS011;20127;48.962;8.342;2023-06-14T00:05:24;8.77;;;5.65;;
33824;SDS011;20127;48.962;8.342;2023-06-14T00:08:26;6.10;;;5.50;;
33824;SDS011;20127;48.962;8.342;2023-06-14T00:11:27;6.00;;;5.50;;
33824;SDS011;20127;48.962;8.342;2023-06-14T00:14:30;15.73;;;7.22;;
33824;SDS011;20127;48.962;8.342;2023-06-14T00:17:32;6.13;;;5.53;;
33824;SDS011;20127;48.962;8.342;2023-06-14T00:20:35;5.65;;;4.78;;
33824;SDS011;20127;48.962;8.342;2023-06-14T00:23:37;11.27;;;4.82;;
33824;SDS011;20127;48.962;8.342;2023-06-14T00:26:39;6.88;;;5.68;;
33824;SDS011;20127;48.962;8.342;2023-06-14T00:29:40;7.22;;;5.70;;
33824;SDS011;20127;48.962;8.342;2023-06-14T00:32:42;6.57;;;5.88;;
33824;SDS011;20127;48.962;8.342;2023-06-14T00:35:46;7.30;;;5.72;;
33824;SDS011;20127;48.962;8.342;2023-06-14T00:38:48;8.15;;;5.72;;
33824;SDS011;20127;48.962;8.342;2023-06-14T00:41:49;9.32;;;5.32;;
33824;SDS011;20127;48.962;8.342;2023-06-14T00:44:51;6.88;;;5.82;;
33824;SDS011;20127;48.962;8.342;2023-06-14T00:47:53;4.95;;;4.55;;
33824;SDS011;20127;48.962;8.342;2023-06-14T00:50:56;5.07;;;4.57;;
33824;SDS011;20127;48.962;8.342;2023-06-14T00:53:58;5.45;;;4.95;;
33824;SDS011;20127;48.962;8.342;2023-06-14T00:57:00;7.20;;;5.13;;
33824;SDS011;20127;48.962;8.342;2023-06-14T01:00:02;6.18;;;5.55;;
33824;SDS011;20127;48.962;8.342;2023-06-14T01:03:04;8.82;;;5.13;;
33824;SDS011;20127;48.962;8.342;2023-06-14T01:06:10;6.43;;;5.78;;
33824;SDS011;20127;48.962;8.342;2023-06-14T01:09:28;6.65;;;5.50;;
33824;SDS011;20127;48.962;8.342;2023-06-14T01:12:37;5.43;;;4.82;;
33824;SDS011;20127;48.962;8.342;2023-06-14T01:15:45;6.35;;;5.75;;
33824;SDS011;20127;48.962;8.342;2023-06-14T01:18:48;6.10;;;5.60;;
33824;SDS011;20127;48.962;8.342;2023-06-14T01:21:54;7.50;;;4.35;;
33824;SDS011;20127;48.962;8.342;2023-06-14T01:24:58;6.25;;;4.72;;
33824;SDS011;20127;48.962;8.342;2023-06-14T01:28:00;6.35;;;5.75;;
33824;SDS011;20127;48.962;8.342;2023-06-14T01:31:04;8.68;;;5.25;;
33824;SDS011;20127;48.962;8.342;2023-06-14T01:34:06;6.70;;;5.70;;
33824;SDS011;20127;48.962;8.342;2023-06-14T01:37:07;5.70;;;4.65;;
33824;SDS011;20127;48.962;8.342;2023-06-14T01:40:11;6.40;;;5.35;;
33824;SDS011;20127;48.962;8.342;2023-06-14T01:43:15;6.22;;;5.50;;
33824;SDS011;20127;48.962;8.342;2023-06-14T01:46:17;5.13;;;4.70;;
33824;SDS011;20127;48.962;8.342;2023-06-14T01:49:20;5.15;;;4.72;;
33824;SDS011;20127;48.962;8.342;2023-06-14T01:52:21;6.03;;;5.38;;
33824;SDS011;20127;48.962;8.342;2023-06-14T01:55:25;6.72;;;4.95;;
33824;SDS011;20127;48.962;8.342;2023-06-14T01:58:27;6.97;;;4.90;;
33824;SDS011;20127;48.962;8.342;2023-06-14T02:01:29;6.82;;;4.80;;
33824;SDS011;20127;48.962;8.342;2023-06-14T02:04:30;5.38;;;4.88;;
33824;SDS011;20127;48.962;8.342;2023-06-14T02:07:32;5.65;;;5.07;;
33824;SDS011;20127;48.962;8.342;2023-06-14T02:10:35;5.72;;;4.75;;
33824;SDS011;20127;48.962;8.342;2023-06-14T02:13:37;5.95;;;5.40;;
33824;SDS011;20127;48.962;8.342;2023-06-14T02:16:39;5.05;;;4.55;;
33824;SDS011;20127;48.962;8.342;2023-06-14T02:19:48;6.07;;;5.43;;
33824;SDS011;20127;48.962;8.342;2023-06-14T02:22:50;9.98;;;6.13;;
33824;SDS011;20127;48.962;8.342;2023-06-14T02:25:53;5.03;;;4.55;;
33824;SDS011;20127;48.962;8.342;2023-06-14T02:28:55;6.72;;;5.07;;
33824;SDS011;20127;48.962;8.342;2023-06-14T02:31:57;6.35;;;5.32;;
33824;SDS011;20127;48.962;8.342;2023-06-14T02:34:58;8.45;;;4.53;;
33824;SDS011;20127;48.962;8.342;2023-06-14T02:38:00;8.75;;;5.88;;
33824;SDS011;20127;48.962;8.342;2023-06-14T02:41:03;9.63;;;5.13;;
33824;SDS011;20127;48.962;8.342;2023-06-14T02:44:06;8.43;;;5.05;;
33824;SDS011;20127;48.962;8.342;2023-06-14T02:47:07;7.70;;;6.75;;
33824;SDS011;20127;48.962;8.342;2023-06-14T02:50:09;7.78;;;5.60;;
33824;SDS011;20127;48.962;8.342;2023-06-14T02:53:11;8.35;;;5.22;;
33824;SDS011;20127;48.962;8.342;2023-06-14T02:56:14;11.27;;;6.82;;
33824;SDS011;20127;48.962;8.342;2023-06-14T02:59:17;7.45;;;5.38;;
33824;SDS011;20127;48.962;8.342;2023-06-14T03:02:19;6.75;;;5.65;;
33824;SDS011;20127;48.962;8.342;2023-06-14T03:05:20;9.60;;;7.82;;
33824;SDS011;20127;48.962;8.342;2023-06-14T03:08:23;8.32;;;5.32;;
33824;SDS011;20127;48.962;8.342;2023-06-14T03:11:28;5.40;;;4.90;;
33824;SDS011;20127;48.962;8.342;2023-06-14T03:14:30;12.00;;;5.97;;
33824;SDS011;20127;48.962;8.342;2023-06-14T03:17:32;5.60;;;5.10;;
33824;SDS011;20127;48.962;8.342;2023-06-14T03:20:35;6.90;;;4.68;;
33824;SDS011;20127;48.962;8.342;2023-06-14T03:23:37;11.45;;;5.25;;
33824;SDS011;20127;48.962;8.342;2023-06-14T03:26:40;9.38;;;5.05;;
33824;SDS011;20127;48.962;8.342;2023-06-14T03:29:41;6.47;;;5.65;;
33824;SDS011;20127;48.962;8.342;2023-06-14T03:32:43;5.10;;;4.70;;
33824;SDS011;20127;48.962;8.342;2023-06-14T03:35:45;8.52;;;4.70;;
33824;SDS011;20127;48.962;8.342;2023-06-14T03:38:46;7.47;;;5.30;;
33824;SDS011;20127;48.962;8.342;2023-06-14T03:41:49;5.93;;;5.38;;
33824;SDS011;20127;48.962;8.342;2023-06-14T03:44:51;23.92;;;8.13;;
33824;SDS011;20127;48.962;8.342;2023-06-14T03:47:53;17.92;;;8.90;;
33824;SDS011;20127;48.962;8.342;2023-06-14T03:50:54;25.35;;;8.18;;
33824;SDS011;20127;48.962;8.342;2023-06-14T03:53:56;8.40;;;6.05;;
33824;SDS011;20127;48.962;8.342;2023-06-14T03:56:59;10.50;;;7.20;;
33824;SDS011;20127;48.962;8.342;2023-06-14T04:00:01;8.45;;;5.50;;
33824;SDS011;20127;48.962;8.342;2023-06-14T04:03:06;7.28;;;5.43;;
33824;SDS011;20127;48.962;8.342;2023-06-14T04:06:07;8.18;;;5.70;;
33824;SDS011;20127;48.962;8.342;2023-06-14T04:09:09;5.55;;;4.72;;
33824;SDS011;20127;48.962;8.342;2023-06-14T04:12:12;7.18;;;6.10;;
33824;SDS011;20127;48.962;8.342;2023-06-14T04:15:14;5.47;;;4.97;;
33824;SDS011;20127;48.962;8.342;2023-06-14T04:18:15;10.00;;;5.82;;
33824;SDS011;20127;48.962;8.342;2023-06-14T04:21:18;8.88;;;7.43;;
33824;SDS011;20127;48.962;8.342;2023-06-14T04:24:21;8.00;;;5.78;;
33824;SDS011;20127;48.962;8.342;2023-06-14T04:27:25;7.63;;;6.05;;
33824;SDS011;20127;48.962;8.342;2023-06-14T04:30:28;5.95;;;5.43;;
33824;SDS011;20127;48.962;8.342;2023-06-14T04:33:31;9.57;;;5.80;;
33824;SDS011;20127;48.962;8.342;2023-06-14T04:36:33;9.02;;;5.47;;
33824;SDS011;20127;48.962;8.342;2023-06-14T04:39:36;10.52;;;5.43;;
33824;SDS011;20127;48.962;8.342;2023-06-14T04:42:39;7.57;;;6.18;;
33824;SDS011;20127;48.962;8.342;2023-06-14T04:45:44;12.50;;;6.70;;
33824;SDS011;20127;48.962;8.342;2023-06-14T04:48:46;6.50;;;5.60;;
33824;SDS011;20127;48.962;8.342;2023-06-14T04:51:50;8.82;;;6.32;;
33824;SDS011;20127;48.962;8.342;2023-06-14T04:54:57;7.32;;;4.93;;
33824;SDS011;20127;48.962;8.342;2023-06-14T04:58:00;8.00;;;5.05;;
33824;SDS011;20127;48.962;8.342;2023-06-14T05:01:02;5.70;;;5.07;;
33824;SDS011;20127;48.962;8.342;2023-06-14T05:04:04;8.27;;;5.32;;
33824;SDS011;20127;48.962;8.342;2023-06-14T05:07:06;6.00;;;5.40;;
33824;SDS011;20127;48.962;8.342;2023-06-14T05:10:09;6.07;;;5.43;;
33824;SDS011;20127;48.962;8.342;2023-06-14T05:13:12;10.70;;;4.78;;
33824;SDS011;20127;48.962;8.342;2023-06-14T05:16:14;5.65;;;5.07;;
33824;SDS011;20127;48.962;8.342;2023-06-14T05:19:16;6.70;;;4.70;;
33824;SDS011;20127;48.962;8.342;2023-06-14T05:22:18;6.25;;;5.30;;
33824;SDS011;20127;48.962;8.342;2023-06-14T05:25:20;5.18;;;4.68;;
33824;SDS011;20127;48.962;8.342;2023-06-14T05:28:23;7.88;;;5.13;;
33824;SDS011;20127;48.962;8.342;2023-06-14T05:31:25;9.30;;;5.43;;
33824;SDS011;20127;48.962;8.342;2023-06-14T05:34:28;9.95;;;4.97;;
33824;SDS011;20127;48.962;8.342;2023-06-14T05:37:29;5.25;;;4.72;;
33824;SDS011;20127;48.962;8.342;2023-06-14T05:40:31;5.97;;;5.22;;
33824;SDS011;20127;48.962;8.342;2023-06-14T05:43:34;5.40;;;4.85;;
33824;SDS011;20127;48.962;8.342;2023-06-14T05:46:36;5.50;;;5.00;;
33824;SDS011;20127;48.962;8.342;2023-06-14T05:49:40;4.78;;;4.35;;
33824;SDS011;20127;48.962;8.342;2023-06-14T05:52:41;7.82;;;4.95;;
33824;SDS011;20127;48.962;8.342;2023-06-14T05:55:43;9.07;;;6.53;;
33824;SDS011;20127;48.962;8.342;2023-06-14T05:58:46;5.57;;;5.07;;
33824;SDS011;20127;48.962;8.342;2023-06-14T06:01:48;8.45;;;4.95;;
33824;SDS011;20127;48.962;8.342;2023-06-14T06:04:50;5.90;;;5.30;;
33824;SDS011;20127;48.962;8.342;2023-06-14T06:07:51;13.57;;;5.65;;
33824;SDS011;20127;48.962;8.342;2023-06-14T06:10:53;6.38;;;4.97;;
33824;SDS011;20127;48.962;8.342;2023-06-14T06:13:56;6.20;;;5.43;;
33824;SDS011;20127;48.962;8.342;2023-06-14T06:16:58;6.60;;;4.93;;
33824;SDS011;20127;48.962;8.342;2023-06-14T06:20:00;7.60;;;5.07;;
33824;SDS011;20127;48.962;8.342;2023-06-14T06:23:02;6.20;;;4.50;;
33824;SDS011;20127;48.962;8.342;2023-06-14T06:26:04;5.15;;;4.60;;
33824;SDS011;20127;48.962;8.342;2023-06-14T06:29:07;11.15;;;5.35;;
33824;SDS011;20127;48.962;8.342;2023-06-14T06:32:09;8.50;;;4.68;;
33824;SDS011;20127;48.962;8.342;2023-06-14T06:35:11;8.85;;;5.70;;
33824;SDS011;20127;48.962;8.342;2023-06-14T06:38:13;8.23;;;5.45;;
33824;SDS011;20127;48.962;8.342;2023-06-14T06:41:15;9.57;;;5.97;;
33824;SDS011;20127;48.962;8.342;2023-06-14T06:44:18;5.72;;;4.88;;
33824;SDS011;20127;48.962;8.342;2023-06-14T06:47:19;11.40;;;5.88;;
33824;SDS011;20127;48.962;8.342;2023-06-14T06:50:21;7.90;;;4.65;;
33824;SDS011;20127;48.962;8.342;2023-06-14T06:53:25;5.05;;;4.65;;
33824;SDS011;20127;48.962;8.342;2023-06-14T06:56:26;5.60;;;5.07;;
33824;SDS011;20127;48.962;8.342;2023-06-14T06:59:29;5.13;;;4.65;;
33824;SDS011;20127;48.962;8.342;2023-06-14T07:02:31;5.95;;;5.03;;
33824;SDS011;20127;48.962;8.342;2023-06-14T07:05:33;6.47;;;4.82;;
33824;SDS011;20127;48.962;8.342;2023-06-14T07:08:35;9.60;;;5.65;;
33824;SDS011;20127;48.962;8.342;2023-06-14T07:11:38;5.40;;;4.95;;
33824;SDS011;20127;48.962;8.342;2023-06-14T07:14:41;5.50;;;4.60;;
33824;SDS011;20127;48.962;8.342;2023-06-14T07:17:43;12.10;;;4.70;;
33824;SDS011;20127;48.962;8.342;2023-06-14T07:20:45;5.70;;;4.85;;
33824;SDS011;20127;48.962;8.342;2023-06-14T07:23:47;5.00;;;4.25;;
33824;SDS011;20127;48.962;8.342;2023-06-14T07:26:49;10.23;;;5.15;;
33824;SDS011;20127;48.962;8.342;2023-06-14T07:29:52;9.13;;;4.80;;
33824;SDS011;20127;48.962;8.342;2023-06-14T07:32:54;8.07;;;4.68;;
33824;SDS011;20127;48.962;8.342;2023-06-14T07:35:56;10.07;;;4.65;;
33824;SDS011;20127;48.962;8.342;2023-06-14T07:38:57;7.32;;;4.95;;
33824;SDS011;20127;48.962;8.342;2023-06-14T07:41:59;11.18;;;4.28;;
33824;SDS011;20127;48.962;8.342;2023-06-14T07:45:02;5.35;;;4.63;;
33824;SDS011;20127;48.962;8.342;2023-06-14T07:48:05;6.60;;;5.00;;
33824;SDS011;20127;48.962;8.342;2023-06-14T07:51:06;7.78;;;5.97;;
33824;SDS011;20127;48.962;8.342;2023-06-14T07:54:08;7.90;;;4.13;;
33824;SDS011;20127;48.962;8.342;2023-06-14T07:57:10;7.47;;;4.70;;
33824;SDS011;20127;48.962;8.342;2023-06-14T08:00:14;6.45;;;4.03;;
33824;SDS011;20127;48.962;8.342;2023-06-14T08:03:18;9.05;;;4.45;;
33824;SDS011;20127;48.962;8.342;2023-06-14T08:06:19;9.32;;;4.15;;
33824;SDS011;20127;48.962;8.342;2023-06-14T08:09:21;5.32;;;4.03;;
33824;SDS011;20127;48.962;8.342;2023-06-14T08:12:24;5.18;;;4.65;;
33824;SDS011;20127;48.962;8.342;2023-06-14T08:15:27;5.97;;;4.90;;
33824;SDS011;20127;48.962;8.342;2023-06-14T08:18:29;10.05;;;4.15;;
33824;SDS011;20127;48.962;8.342;2023-06-14T08:21:30;8.93;;;4.32;;
33824;SDS011;20127;48.962;8.342;2023-06-14T08:24:33;10.52;;;4.60;;
33824;SDS011;20127;48.962;8.342;2023-06-14T08:27:36;4.72;;;4.22;;
33824;SDS011;20127;48.962;8.342;2023-06-14T08:30:39;7.13;;;4.55;;
33824;SDS011;20127;48.962;8.342;2023-06-14T08:33:42;11.73;;;5.18;;
33824;SDS011;20127;48.962;8.342;2023-06-14T08:36:44;5.47;;;4.10;;
33824;SDS011;20127;48.962;8.342;2023-06-14T08:39:46;5.53;;;3.88;;
33824;SDS011;20127;48.962;8.342;2023-06-14T08:42:48;5.40;;;4.50;;
33824;SDS011;20127;48.962;8.342;2023-06-14T08:45:54;7.00;;;4.03;;
33824;SDS011;20127;48.962;8.342;2023-06-14T08:49:00;6.00;;;4.03;;
33824;SDS011;20127;48.962;8.342;2023-06-14T08:52:03;5.63;;;3.97;;
33824;SDS011;20127;48.962;8.342;2023-06-14T08:55:10;6.20;;;4.72;;
33824;SDS011;20127;48.962;8.342;2023-06-14T08:58:13;4.45;;;4.03;;
33824;SDS011;20127;48.962;8.342;2023-06-14T09:01:17;7.90;;;4.00;;
33824;SDS011;20127;48.962;8.342;2023-06-14T09:04:19;6.78;;;4.63;;
33824;SDS011;20127;48.962;8.342;2023-06-14T09:07:21;5.72;;;4.75;;
33824;SDS011;20127;48.962;8.342;2023-06-14T09:10:24;7.45;;;5.28;;
33824;SDS011;20127;48.962;8.342;2023-06-14T09:13:26;6.18;;;4.00;;
33824;SDS011;20127;48.962;8.342;2023-06-14T09:16:31;8.10;;;5.07;;
33824;SDS011;20127;48.962;8.342;2023-06-14T09:19:33;4.40;;;4.00;;
33824;SDS011;20127;48.962;8.342;2023-06-14T09:22:36;6.55;;;5.75;;
33824;SDS011;20127;48.962;8.342;2023-06-14T09:25:43;6.00;;;4.70;;
33824;SDS011;20127;48.962;8.342;2023-06-14T09:28:45;6.95;;;4.15;;
33824;SDS011;20127;48.962;8.342;2023-06-14T09:31:49;4.65;;;4.25;;
33824;SDS011;20127;48.962;8.342;2023-06-14T09:34:51;7.38;;;4.97;;
33824;SDS011;20127;48.962;8.342;2023-06-14T09:37:53;5.32;;;3.92;;
33824;SDS011;20127;48.962;8.342;2023-06-14T09:40:57;6.18;;;4.82;;
33824;SDS011;20127;48.962;8.342;2023-06-14T09:43:59;8.57;;;4.38;;
33824;SDS011;20127;48.962;8.342;2023-06-14T09:47:04;7.05;;;5.07;;
33824;SDS011;20127;48.962;8.342;2023-06-14T09:50:06;5.75;;;3.70;;
33824;SDS011;20127;48.962;8.342;2023-06-14T09:53:10;7.50;;;4.50;;
33824;SDS011;20127;48.962;8.342;2023-06-14T09:56:12;5.25;;;4.53;;
33824;SDS011;20127;48.962;8.342;2023-06-14T09:59:16;9.50;;;4.10;;
33824;SDS011;20127;48.962;8.342;2023-06-14T10:02:24;6.88;;;4.25;;
33824;SDS011;20127;48.962;8.342;2023-06-14T10:05:27;5.75;;;4.40;;
33824;SDS011;20127;48.962;8.342;2023-06-14T10:08:30;11.32;;;3.97;;
33824;SDS011;20127;48.962;8.342;2023-06-14T10:11:33;8.85;;;3.90;;
33824;SDS011;20127;48.962;8.342;2023-06-14T10:14:36;7.47;;;4.05;;
33824;SDS011;20127;48.962;8.342;2023-06-14T10:17:42;4.85;;;4.30;;
33824;SDS011;20127;48.962;8.342;2023-06-14T10:20:50;6.35;;;3.60;;
33824;SDS011;20127;48.962;8.342;2023-06-14T10:24:00;5.78;;;3.90;;
33824;SDS011;20127;48.962;8.342;2023-06-14T10:27:06;9.77;;;4.18;;
33824;SDS011;20127;48.962;8.342;2023-06-14T10:30:10;4.97;;;3.67;;
33824;SDS011;20127;48.962;8.342;2023-06-14T10:33:17;7.88;;;3.50;;
33824;SDS011;20127;48.962;8.342;2023-06-14T10:36:24;5.75;;;4.03;;
33824;SDS011;20127;48.962;8.342;2023-06-14T10:39:31;5.78;;;4.28;;
33824;SDS011;20127;48.962;8.342;2023-06-14T10:42:33;8.07;;;3.50;;
33824;SDS011;20127;48.962;8.342;2023-06-14T10:45:35;6.57;;;4.35;;
33824;SDS011;20127;48.962;8.342;2023-06-14T10:48:41;5.20;;;4.72;;
33824;SDS011;20127;48.962;8.342;2023-06-14T10:51:44;4.60;;;4.10;;
33824;SDS011;20127;48.962;8.342;2023-06-14T10:54:59;4.53;;;3.63;;
33824;SDS011;20127;48.962;8.342;2023-06-14T10:58:04;7.32;;;3.67;;
33824;SDS011;20127;48.962;8.342;2023-06-14T11:01:05;4.80;;;3.75;;
33824;SDS011;20127;48.962;8.342;2023-06-14T11:04:09;3.45;;;3.17;;
33824;SDS011;20127;48.962;8.342;2023-06-14T11:07:18;5.78;;;3.80;;
33824;SDS011;20127;48.962;8.342;2023-06-14T11:10:36;9.57;;;4.03;;
33824;SDS011;20127;48.962;8.342;2023-06-14T11:13:39;3.83;;;3.25;;
33824;SDS011;20127;48.962;8.342;2023-06-14T11:16:42;20.23;;;5.22;;
33824;SDS011;20127;48.962;8.342;2023-06-14T11:19:50;5.15;;;4.03;;
33824;SDS011;20127;48.962;8.342;2023-06-14T11:23:08;4.40;;;4.10;;
33824;SDS011;20127;48.962;8.342;2023-06-14T11:26:10;3.92;;;3.30;;
33824;SDS011;20127;48.962;8.342;2023-06-14T11:29:12;6.32;;;3.80;;
33824;SDS011;20127;48.962;8.342;2023-06-14T11:32:16;5.10;;;4.03;;
33824;SDS011;20127;48.962;8.342;2023-06-14T11:35:19;8.90;;;3.97;;
33824;SDS011;20127;48.962;8.342;2023-06-14T11:38:23;5.15;;;3.60;;
33824;SDS011;20127;48.962;8.342;2023-06-14T11:41:25;11.55;;;4.50;;
33824;SDS011;20127;48.962;8.342;2023-06-14T11:47:35;7.70;;;4.30;;
33824;SDS011;20127;48.962;8.342;2023-06-14T11:50:38;3.65;;;3.33;;
33824;SDS011;20127;48.962;8.342;2023-06-14T11:53:41;8.43;;;4.70;;
33824;SDS011;20127;48.962;8.342;2023-06-14T11:56:44;4.90;;;4.13;;
33824;SDS011;20127;48.962;8.342;2023-06-14T11:59:45;6.07;;;4.93;;
33824;SDS011;20127;48.962;8.342;2023-06-14T12:02:54;3.78;;;3.40;;
33824;SDS011;20127;48.962;8.342;2023-06-14T12:06:05;8.30;;;4.70;;
33824;SDS011;20127;48.962;8.342;2023-06-14T12:09:08;7.63;;;5.00;;
33824;SDS011;20127;48.962;8.342;2023-06-14T12:12:13;5.90;;;4.57;;
33824;SDS011;20127;48.962;8.342;2023-06-14T12:15:15;4.85;;;3.97;;
33824;SDS011;20127;48.962;8.342;2023-06-14T12:18:18;8.30;;;4.20;;
33824;SDS011;20127;48.962;8.342;2023-06-14T12:21:22;9.65;;;4.40;;
33824;SDS011;20127;48.962;8.342;2023-06-14T12:24:27;9.10;;;4.25;;
33824;SDS011;20127;48.962;8.342;2023-06-14T12:27:29;8.02;;;4.45;;
33824;SDS011;20127;48.962;8.342;2023-06-14T12:30:31;8.95;;;4.38;;
33824;SDS011;20127;48.962;8.342;2023-06-14T12:33:33;7.57;;;4.13;;
33824;SDS011;20127;48.962;8.342;2023-06-14T12:36:36;7.72;;;4.78;;
33824;SDS011;20127;48.962;8.342;2023-06-14T12:39:42;4.13;;;3.73;;
33824;SDS011;20127;48.962;8.342;2023-06-14T12:42:44;6.10;;;4.20;;
33824;SDS011;20127;48.962;8.342;2023-06-14T12:45:47;6.35;;;4.30;;
33824;SDS011;20127;48.962;8.342;2023-06-14T12:48:48;4.07;;;3.70;;
33824;SDS011;20127;48.962;8.342;2023-06-14T12:51:51;5.55;;;3.72;;
33824;SDS011;20127;48.962;8.342;2023-06-14T12:54:53;8.15;;;3.42;;
33824;SDS011;20127;48.962;8.342;2023-06-14T12:57:55;4.57;;;3.53;;
33824;SDS011;20127;48.962;8.342;2023-06-14T13:00:56;4.75;;;3.25;;
33824;SDS011;20127;48.962;8.342;2023-06-14T13:03:58;9.48;;;3.70;;
33824;SDS011;20127;48.962;8.342;2023-06-14T13:07:01;4.85;;;4.40;;
33824;SDS011;20127;48.962;8.342;2023-06-14T13:10:03;3.90;;;3.60;;
33824;SDS011;20127;48.962;8.342;2023-06-14T13:13:06;6.18;;;3.88;;
33824;SDS011;20127;48.962;8.342;2023-06-14T13:16:08;5.43;;;4.05;;
33824;SDS011;20127;48.962;8.342;2023-06-14T13:19:10;4.28;;;3.88;;
33824;SDS011;20127;48.962;8.342;2023-06-14T13:22:13;5.55;;;3.60;;
33824;SDS011;20127;48.962;8.342;2023-06-14T13:25:15;12.45;;;4.40;;
33824;SDS011;20127;48.962;8.342;2023-06-14T13:28:17;7.72;;;3.88;;
33824;SDS011;20127;48.962;8.342;2023-06-14T13:31:19;7.20;;;4.20;;
33824;SDS011;20127;48.962;8.342;2023-06-14T13:34:20;7.35;;;4.10;;
33824;SDS011;20127;48.962;8.342;2023-06-14T13:37:23;6.78;;;4.80;;
33824;SDS011;20127;48.962;8.342;2023-06-14T13:40:25;6.90;;;4.57;;
33824;SDS011;20127;48.962;8.342;2023-06-14T13:43:27;7.03;;;3.83;;
33824;SDS011;20127;48.962;8.342;2023-06-14T13:46:28;3.72;;;3.42;;
33824;SDS011;20127;48.962;8.342;2023-06-14T13:49:30;7.72;;;3.72;;
33824;SDS011;20127;48.962;8.342;2023-06-14T13:52:36;6.72;;;4.30;;
33824;SDS011;20127;48.962;8.342;2023-06-14T13:55:38;4.55;;;4.15;;
33824;SDS011;20127;48.962;8.342;2023-06-14T13:58:39;3.83;;;3.42;;
33824;SDS011;20127;48.962;8.342;2023-06-14T14:01:41;7.40;;;3.85;;
33824;SDS011;20127;48.962;8.342;2023-06-14T14:04:43;10.07;;;3.75;;
33824;SDS011;20127;48.962;8.342;2023-06-14T14:07:46;6.10;;;3.97;;
33824;SDS011;20127;48.962;8.342;2023-06-14T14:10:48;4.85;;;3.17;;
33824;SDS011;20127;48.962;8.342;2023-06-14T14:13:49;3.80;;;3.28;;
33824;SDS011;20127;48.962;8.342;2023-06-14T14:16:51;3.83;;;3.40;;
33824;SDS011;20127;48.962;8.342;2023-06-14T14:19:53;5.70;;;3.92;;
33824;SDS011;20127;48.962;8.342;2023-06-14T14:22:56;5.85;;;3.75;;
33824;SDS011;20127;48.962;8.342;2023-06-14T14:25:58;3.65;;;3.13;;
33824;SDS011;20127;48.962;8.342;2023-06-14T14:29:00;4.45;;;3.80;;
33824;SDS011;20127;48.962;8.342;2023-06-14T14:32:03;4.72;;;3.45;;
33824;SDS011;20127;48.962;8.342;2023-06-14T14:35:05;5.13;;;3.85;;
33824;SDS011;20127;48.962;8.342;2023-06-14T14:38:09;3.55;;;3.25;;
33824;SDS011;20127;48.962;8.342;2023-06-14T14:41:11;8.95;;;3.17;;
33824;SDS011;20127;48.962;8.342;2023-06-14T14:44:13;3.47;;;3.00;;
33824;SDS011;20127;48.962;8.342;2023-06-14T14:47:14;5.90;;;3.55;;
33824;SDS011;20127;48.962;8.342;2023-06-14T14:50:16;5.45;;;3.05;;
33824;SDS011;20127;48.962;8.342;2023-06-14T14:53:19;5.88;;;3.13;;
33824;SDS011;20127;48.962;8.342;2023-06-14T14:56:21;4.22;;;3.80;;
33824;SDS011;20127;48.962;8.342;2023-06-14T14:59:23;8.10;;;3.40;;
33824;SDS011;20127;48.962;8.342;2023-06-14T15:02:25;4.72;;;3.30;;
33824;SDS011;20127;48.962;8.342;2023-06-14T15:05:27;9.45;;;3.17;;
33824;SDS011;20127;48.962;8.342;2023-06-14T16:36:48;3.25;;;2.90;;
33824;SDS011;20127;48.962;8.342;2023-06-14T16:39:49;4.72;;;3.53;;
33824;SDS011;20127;48.962;8.342;2023-06-14T16:42:51;5.10;;;4.70;;
33824;SDS011;20127;48.962;8.342;2023-06-14T16:45:53;6.03;;;3.53;;
33824;SDS011;20127;48.962;8.342;2023-06-14T16:48:55;6.78;;;4.00;;
33824;SDS011;20127;48.962;8.342;2023-06-14T16:51:58;8.07;;;3.92;;
33824;SDS011;20127;48.962;8.342;2023-06-14T16:54:59;8.35;;;4.07;;
33824;SDS011;20127;48.962;8.342;2023-06-14T16:58:01;6.40;;;3.75;;
33824;SDS011;20127;48.962;8.342;2023-06-14T17:01:03;3.95;;;3.60;;
33824;SDS011;20127;48.962;8.342;2023-06-14T17:04:05;3.95;;;3.65;;
33824;SDS011;20127;48.962;8.342;2023-06-14T17:07:08;5.95;;;3.47;;
33824;SDS011;20127;48.962;8.342;2023-06-14T17:10:10;4.25;;;3.85;;
33824;SDS011;20127;48.962;8.342;2023-06-14T17:13:11;3.83;;;3.47;;
33824;SDS011;20127;48.962;8.342;2023-06-14T17:16:13;4.35;;;3.22;;
33824;SDS011;20127;48.962;8.342;2023-06-14T17:19:15;4.00;;;3.67;;
33824;SDS011;20127;48.962;8.342;2023-06-14T17:22:18;5.80;;;3.60;;
33824;SDS011;20127;48.962;8.342;2023-06-14T17:25:20;4.50;;;4.10;;
33824;SDS011;20127;48.962;8.342;2023-06-14T17:28:22;4.25;;;3.85;;
33824;SDS011;20127;48.962;8.342;2023-06-14T17:31:23;4.32;;;3.53;;
33824;SDS011;20127;48.962;8.342;2023-06-14T17:34:25;3.38;;;3.17;;
33824;SDS011;20127;48.962;8.342;2023-06-14T17:37:28;4.05;;;3.70;;
33824;SDS011;20127;48.962;8.342;2023-06-14T17:40:30;8.55;;;4.72;;
33824;SDS011;20127;48.962;8.342;2023-06-14T17:43:32;5.28;;;3.67;;
33824;SDS011;20127;48.962;8.342;2023-06-14T17:46:34;6.97;;;4.07;;
33824;SDS011;20127;48.962;8.342;2023-06-14T17:49:36;6.63;;;4.32;;
33824;SDS011;20127;48.962;8.342;2023-06-14T17:52:39;5.93;;;4.10;;
33824;SDS011;20127;48.962;8.342;2023-06-14T17:55:41;7.25;;;5.47;;
33824;SDS011;20127;48.962;8.342;2023-06-14T17:58:42;4.38;;;3.72;;
33824;SDS011;20127;48.962;8.342;2023-06-14T18:01:44;6.00;;;3.90;;
33824;SDS011;20127;48.962;8.342;2023-06-14T18:04:46;5.13;;;4.00;;
33824;SDS011;20127;48.962;8.342;2023-06-14T18:07:49;3.80;;;3.50;;
33824;SDS011;20127;48.962;8.342;2023-06-14T18:10:51;5.85;;;4.32;;
33824;SDS011;20127;48.962;8.342;2023-06-14T18:13:52;4.78;;;4.32;;
33824;SDS011;20127;48.962;8.342;2023-06-14T18:16:54;4.82;;;4.43;;
33824;SDS011;20127;48.962;8.342;2023-06-14T18:19:56;9.63;;;4.60;;
33824;SDS011;20127;48.962;8.342;2023-06-14T18:22:59;9.52;;;4.10;;
33824;SDS011;20127;48.962;8.342;2023-06-14T18:26:01;5.70;;;3.85;;
33824;SDS011;20127;48.962;8.342;2023-06-14T18:29:02;11.02;;;3.83;;
33824;SDS011;20127;48.962;8.342;2023-06-14T18:32:04;7.18;;;4.88;;
33824;SDS011;20127;48.962;8.342;2023-06-14T18:35:06;4.47;;;3.78;;
33824;SDS011;20127;48.962;8.342;2023-06-14T18:38:10;6.75;;;4.80;;
33824;SDS011;20127;48.962;8.342;2023-06-14T18:41:12;7.88;;;4.63;;
33824;SDS011;20127;48.962;8.342;2023-06-14T18:44:14;5.47;;;4.15;;
33824;SDS011;20127;48.962;8.342;2023-06-14T18:47:15;4.05;;;3.55;;
33824;SDS011;20127;48.962;8.342;2023-06-14T18:50:17;7.18;;;4.05;;
33824;SDS011;20127;48.962;8.342;2023-06-14T18:53:20;4.82;;;3.35;;
33824;SDS011;20127;48.962;8.342;2023-06-14T18:56:22;8.50;;;3.80;;
33824;SDS011;20127;48.962;8.342;2023-06-14T18:59:24;5.95;;;4.75;;
33824;SDS011;20127;48.962;8.342;2023-06-14T19:02:26;5.95;;;3.45;;
33824;SDS011;20127;48.962;8.342;2023-06-14T19:05:28;3.53;;;3.22;;
33824;SDS011;20127;48.962;8.342;2023-06-14T19:08:31;4.38;;;3.97;;
33824;SDS011;20127;48.962;8.342;2023-06-14T19:11:33;4.85;;;3.97;;
33824;SDS011;20127;48.962;8.342;2023-06-14T19:14:34;10.05;;;4.50;;
33824;SDS011;20127;48.962;8.342;2023-06-14T19:17:36;5.70;;;4.07;;
33824;SDS011;20127;48.962;8.342;2023-06-14T19:20:38;7.13;;;4.28;;
33824;SDS011;20127;48.962;8.342;2023-06-14T19:23:41;7.43;;;4.82;;
33824;SDS011;20127;48.962;8.342;2023-06-14T19:26:43;6.88;;;4.25;;
33824;SDS011;20127;48.962;8.342;2023-06-14T19:29:45;5.00;;;3.92;;
33824;SDS011;20127;48.962;8.342;2023-06-14T19:32:46;4.53;;;4.07;;
33824;SDS011;20127;48.962;8.342;2023-06-14T19:35:51;4.28;;;3.90;;
33824;SDS011;20127;48.962;8.342;2023-06-14T19:38:54;4.63;;;4.22;;
33824;SDS011;20127;48.962;8.342;2023-06-14T19:41:56;9.07;;;4.38;;
33824;SDS011;20127;48.962;8.342;2023-06-14T19:44:58;4.68;;;4.25;;
33824;SDS011;20127;48.962;8.342;2023-06-14T19:48:00;9.57;;;4.30;;
33824;SDS011;20127;48.962;8.342;2023-06-14T19:51:01;5.03;;;4.35;;